createdAt,value
2022-08-14T00:02:08.119Z,1.00
2022-08-14T00:04:42.079Z,1.58
2022-08-14T00:07:14.025Z,1.30
2022-08-14T00:10:01.184Z,1.20
2022-08-14T00:12:33.561Z,1.02
2022-08-14T00:15:29.650Z,1.00
2022-08-14T00:18:05.192Z,1.58
2022-08-14T00:20:41.197Z,0.95
2022-08-14T00:23:12.451Z,1.40
2022-08-14T00:25:54.037Z,1.17
2022-08-14T00:28:32.767Z,1.45
2022-08-14T00:31:02.725Z,1.17
2022-08-14T00:33:50.616Z,1.02
2022-08-14T00:36:35.276Z,1.20
2022-08-14T00:39:09.618Z,1.63
2022-08-14T00:41:39.191Z,0.90
2022-08-14T00:44:08.173Z,1.60
2022-08-14T00:46:37.116Z,1.15
2022-08-14T00:49:05.685Z,1.27
2022-08-14T00:51:38.043Z,1.70
2022-08-14T00:54:11.093Z,1.50
2022-08-14T00:56:49.713Z,1.92
2022-08-14T00:59:17.290Z,1.13
2022-08-14T01:01:45.493Z,1.30
2022-08-14T01:04:51.983Z,1.55
2022-08-14T01:07:07.458Z,1.58
2022-08-14T01:09:37.190Z,2.05
2022-08-14T01:12:07.845Z,1.02
2022-08-14T01:14:35.990Z,1.70
2022-08-14T01:17:04.050Z,1.70
2022-08-14T01:19:50.253Z,1.52
2022-08-14T01:22:21.393Z,1.95
2022-08-14T01:24:54.529Z,1.55
2022-08-14T01:27:24.553Z,1.20
2022-08-14T01:30:01.094Z,1.52
2022-08-14T01:32:37.531Z,1.80
2022-08-14T01:35:18.267Z,1.95
2022-08-14T01:37:54.920Z,2.03
2022-08-14T01:40:36.619Z,3.65
2022-08-14T01:43:11.993Z,2.83
2022-08-14T01:45:40.491Z,1.92
2022-08-14T01:48:13.360Z,1.95
2022-08-14T01:50:42.512Z,2.67
2022-08-14T01:53:10.422Z,2.00
2022-08-14T01:55:40.498Z,1.95
2022-08-14T01:58:20.079Z,1.83
2022-08-14T02:00:55.848Z,1.55
2022-08-14T02:03:30.052Z,2.20
2022-08-14T02:06:04.098Z,2.53
2022-08-14T02:08:53.024Z,1.63
2022-08-14T02:11:23.332Z,1.88
2022-08-14T02:13:56.848Z,1.48
2022-08-14T02:16:26.874Z,1.60
2022-08-14T02:18:55.262Z,1.67
2022-08-14T02:21:23.099Z,1.95
2022-08-14T02:23:53.611Z,1.48
2022-08-14T02:26:29.235Z,1.60
2022-08-14T02:29:00.768Z,1.85
2022-08-14T02:31:36.149Z,1.70
2022-08-14T02:34:20.105Z,2.85
2022-08-14T02:37:05.227Z,1.80
2022-08-14T02:39:36.198Z,2.80
2022-08-14T02:42:06.192Z,2.65
2022-08-14T02:44:39.725Z,1.58
2022-08-14T02:47:15.117Z,2.28
2022-08-14T02:49:54.559Z,2.35
2022-08-14T02:52:55.535Z,1.38
2022-08-14T02:55:10.334Z,2.58
2022-08-14T02:57:40.279Z,1.70
2022-08-14T03:00:10.246Z,1.35
2022-08-14T03:02:55.866Z,2.63
2022-08-14T03:05:25.998Z,1.85
2022-08-14T03:07:54.261Z,1.52
2022-08-14T03:10:25.206Z,2.22
2022-08-14T03:12:54.868Z,1.17
2022-08-14T03:15:22.989Z,2.65
2022-08-14T03:17:57.105Z,2.42
2022-08-14T03:22:53.276Z,2.45
2022-08-14T03:25:22.958Z,2.83
2022-08-14T03:27:59.102Z,2.70
2022-08-14T03:30:37.095Z,2.30
2022-08-14T03:33:08.797Z,2.20
2022-08-14T03:35:40.214Z,2.85
2022-08-14T03:39:14.472Z,2.03
2022-08-14T03:41:17.146Z,2.45
2022-08-14T03:43:45.207Z,2.10
2022-08-14T03:46:51.780Z,1.85
2022-08-14T03:49:05.841Z,1.60
2022-08-14T03:51:34.657Z,3.70
2022-08-14T03:54:04.066Z,2.10
2022-08-14T03:56:32.311Z,2.58
2022-08-14T03:59:05.892Z,3.08
2022-08-14T04:01:57.948Z,2.92
2022-08-14T04:04:30.344Z,1.90
2022-08-14T04:07:00.025Z,1.77
2022-08-14T04:09:28.054Z,2.72
2022-08-14T04:11:57.980Z,2.35
2022-08-14T04:14:27.208Z,1.95
2022-08-14T04:16:55.501Z,2.30
2022-08-14T04:19:24.776Z,1.90
2022-08-14T04:22:02.910Z,2.38
2022-08-14T04:24:38.069Z,2.88
2022-08-14T04:27:09.746Z,2.47
2022-08-14T04:29:38.967Z,2.60
2022-08-14T04:32:58.073Z,2.42
2022-08-14T04:34:56.382Z,2.78
2022-08-14T04:37:43.258Z,2.72
2022-08-14T04:40:31.906Z,1.70
2022-08-14T04:43:18.195Z,2.03
2022-08-14T04:45:51.052Z,2.83
2022-08-14T04:48:39.460Z,2.83
2022-08-14T04:51:10.719Z,2.70
2022-08-14T04:53:42.855Z,2.45
2022-08-14T04:59:02.025Z,2.42
2022-08-14T05:01:39.735Z,3.58
2022-08-14T05:04:16.078Z,2.78
2022-08-14T05:06:43.767Z,2.97
2022-08-14T05:09:14.763Z,3.00
2022-08-14T05:11:44.152Z,2.40
2022-08-14T05:14:34.201Z,2.30
2022-08-14T05:17:02.048Z,3.13
2022-08-14T05:19:32.125Z,3.50
2022-08-14T05:22:16.935Z,3.13
2022-08-14T05:24:51.331Z,3.28
2022-08-14T05:27:22.620Z,2.70
2022-08-14T05:29:52.273Z,3.30
2022-08-14T05:32:19.742Z,3.70
2022-08-14T05:34:47.909Z,2.42
2022-08-14T05:37:15.710Z,3.30
2022-08-14T05:39:43.445Z,3.15
2022-08-14T05:42:21.723Z,2.70
2022-08-14T05:44:55.388Z,2.97
2022-08-14T05:47:23.650Z,2.90
2022-08-14T05:49:51.547Z,2.60
2022-08-14T05:52:26.423Z,3.95
2022-08-14T05:55:11.608Z,3.30
2022-08-14T05:58:00.232Z,3.78
2022-08-14T06:00:31.715Z,3.88
2022-08-14T06:03:08.342Z,3.55
2022-08-14T06:05:38.884Z,2.03
2022-08-14T06:08:08.773Z,4.30
2022-08-14T06:10:50.879Z,3.35
2022-08-14T06:13:19.181Z,3.00
2022-08-14T06:15:47.289Z,3.17
2022-08-14T06:18:17.598Z,2.90
2022-08-14T06:20:45.730Z,2.75
2022-08-14T06:23:14.033Z,3.53
2022-08-14T06:25:42.537Z,2.90
2022-08-14T06:28:28.071Z,4.15
2022-08-14T06:30:56.584Z,4.32
2022-08-14T06:35:01.346Z,2.97
2022-08-14T06:36:13.780Z,3.22
2022-08-14T06:38:45.974Z,2.70
2022-08-14T06:41:20.748Z,2.58
2022-08-14T06:43:49.272Z,2.40
2022-08-14T06:46:23.131Z,3.00
2022-08-14T06:49:00.224Z,2.65
2022-08-14T06:51:39.014Z,3.30
2022-08-14T06:54:12.208Z,2.65
2022-08-14T06:56:44.272Z,2.78
2022-08-14T06:59:16.692Z,3.53
2022-08-14T07:02:06.318Z,2.60
2022-08-14T07:04:59.682Z,2.58
2022-08-14T07:07:28.592Z,3.15
2022-08-14T07:09:56.431Z,2.55
2022-08-14T07:12:55.175Z,3.63
2022-08-14T07:15:11.885Z,2.50
2022-08-14T07:17:52.443Z,3.50
2022-08-14T07:20:30.556Z,3.15
2022-08-14T07:23:05.331Z,2.38
2022-08-14T07:25:37.698Z,2.97
2022-08-14T07:28:25.573Z,2.03
2022-08-14T07:31:05.062Z,2.72
2022-08-14T07:33:41.664Z,2.22
2022-08-14T07:36:26.398Z,2.88
2022-08-14T07:38:58.808Z,3.00
2022-08-14T07:41:34.025Z,2.45
2022-08-14T07:44:32.644Z,3.05
2022-08-14T07:46:51.288Z,2.78
2022-08-14T07:49:20.518Z,2.78
2022-08-14T07:51:49.603Z,2.97
2022-08-14T07:54:23.350Z,2.90
2022-08-14T07:57:06.326Z,2.63
2022-08-14T07:59:42.439Z,2.58
2022-08-14T08:02:19.361Z,3.37
2022-08-14T08:04:50.002Z,2.47
2022-08-14T08:07:17.458Z,3.20
2022-08-14T08:09:53.812Z,2.90
2022-08-14T08:12:26.140Z,2.42
2022-08-14T08:15:02.958Z,2.33
2022-08-14T08:17:39.049Z,3.22
2022-08-14T08:20:19.822Z,3.03
2022-08-14T08:22:49.810Z,3.47
2022-08-14T08:25:23.993Z,3.22
2022-08-14T08:28:08.378Z,2.85
2022-08-14T08:30:38.405Z,3.35
2022-08-14T08:33:17.106Z,2.95
2022-08-14T08:35:50.606Z,3.70
2022-08-14T08:39:17.792Z,3.15
2022-08-14T08:41:11.957Z,3.80
2022-08-14T08:43:45.899Z,2.10
2022-08-14T08:46:21.687Z,3.03
2022-08-14T08:51:31.120Z,2.33
2022-08-14T08:54:06.033Z,3.45
2022-08-14T08:56:39.511Z,4.95
2022-08-14T08:59:20.832Z,2.88
2022-08-14T09:02:10.137Z,2.28
2022-08-14T09:04:45.530Z,2.15
2022-08-14T09:07:30.705Z,3.55
2022-08-14T09:10:00.764Z,3.17
2022-08-14T09:12:31.991Z,2.47
2022-08-14T09:15:12.048Z,3.00
2022-08-14T09:17:42.374Z,2.55
2022-08-14T09:20:11.695Z,2.33
2022-08-14T09:22:42.698Z,3.13
2022-08-14T09:25:15.969Z,2.67
2022-08-14T09:27:43.608Z,2.47
2022-08-14T09:30:30.997Z,2.83
2022-08-14T09:33:10.618Z,2.85
2022-08-14T09:35:58.623Z,2.60
2022-08-14T09:38:44.748Z,2.63
2022-08-14T09:42:21.684Z,2.03
2022-08-14T09:44:42.777Z,2.33
2022-08-14T09:47:14.657Z,2.53
2022-08-14T09:49:53.239Z,2.67
2022-08-14T09:52:32.701Z,2.88
2022-08-14T09:55:02.571Z,1.85
2022-08-14T09:57:31.840Z,2.25
2022-08-14T09:59:59.608Z,3.20
2022-08-14T10:02:28.819Z,2.03
2022-08-14T10:05:08.728Z,2.80
2022-08-14T10:07:59.087Z,1.75
2022-08-14T10:10:41.611Z,2.20
2022-08-14T10:13:21.497Z,2.80
2022-08-14T10:15:51.728Z,3.13
2022-08-14T10:18:20.913Z,2.22
2022-08-14T10:20:58.414Z,2.22
2022-08-14T10:23:30.081Z,2.15
2022-08-14T10:26:06.017Z,2.47
2022-08-14T10:29:17.649Z,1.77
2022-08-14T10:31:44.624Z,2.33
2022-08-14T10:34:14.619Z,2.20
2022-08-14T10:36:47.740Z,1.98
2022-08-14T10:39:20.582Z,2.17
2022-08-14T10:41:53.793Z,1.95
2022-08-14T10:44:23.702Z,1.63
2022-08-14T10:47:41.210Z,1.60
2022-08-14T10:49:53.286Z,1.80
2022-08-14T10:52:24.997Z,2.10
2022-08-14T10:54:56.355Z,2.45
2022-08-14T10:57:25.347Z,2.30
2022-08-14T10:59:58.264Z,2.88
2022-08-14T11:02:36.192Z,1.38
2022-08-14T11:05:24.928Z,2.42
2022-08-14T11:07:56.563Z,1.80
2022-08-14T11:10:40.862Z,1.63
2022-08-14T11:13:10.844Z,2.08
2022-08-14T11:15:38.504Z,1.60
2022-08-14T11:18:20.085Z,1.48
2022-08-14T11:20:55.010Z,1.52
2022-08-14T11:23:38.556Z,1.40
2022-08-14T11:26:08.472Z,1.83
2022-08-14T11:28:47.928Z,2.70
2022-08-14T11:31:26.527Z,1.10
2022-08-14T11:34:10.296Z,1.02
2022-08-14T11:37:03.841Z,1.17
2022-08-14T11:39:42.239Z,1.80
2022-08-14T11:42:57.688Z,2.20
2022-08-14T11:45:11.020Z,0.98
2022-08-14T11:48:12.760Z,1.60
2022-08-14T11:50:37.698Z,1.30
2022-08-14T11:53:07.789Z,1.38
2022-08-14T11:55:38.789Z,1.77
2022-08-14T11:58:11.065Z,1.30
2022-08-14T12:01:02.463Z,1.03
2022-08-14T12:03:52.412Z,1.40
2022-08-14T12:06:28.644Z,1.67
2022-08-14T12:09:03.385Z,1.45
2022-08-14T12:11:43.553Z,1.58
2022-08-14T12:14:30.532Z,1.52
2022-08-14T12:17:13.243Z,1.15
2022-08-14T12:19:56.727Z,1.70
2022-08-14T12:22:35.292Z,1.60
2022-08-14T12:25:10.095Z,1.42
2022-08-14T12:27:52.435Z,1.38
2022-08-14T12:30:43.031Z,1.30
2022-08-14T12:33:26.966Z,1.13
2022-08-14T12:36:04.399Z,1.20
2022-08-14T12:38:35.930Z,1.77
2022-08-14T12:41:04.725Z,1.10
2022-08-14T12:43:32.852Z,1.50
2022-08-14T12:46:00.638Z,2.30
2022-08-14T12:48:32.108Z,1.05
2022-08-14T12:51:00.672Z,1.95
2022-08-14T12:53:38.406Z,2.50
2022-08-14T12:56:21.836Z,1.23
2022-08-14T12:58:57.354Z,1.45
2022-08-14T13:01:27.949Z,1.23
2022-08-14T13:04:06.265Z,1.20
2022-08-14T13:06:38.535Z,1.15
2022-08-14T13:09:11.145Z,1.75
2022-08-14T13:11:44.648Z,1.63
2022-08-14T13:14:17.253Z,1.60
2022-08-14T13:19:16.882Z,2.33
2022-08-14T13:22:05.474Z,1.20
2022-08-14T13:24:33.794Z,1.90
2022-08-14T13:27:04.787Z,1.70
2022-08-14T13:29:34.379Z,2.20
2022-08-14T13:32:02.400Z,1.58
2022-08-14T13:34:31.543Z,1.33
2022-08-14T13:37:03.951Z,2.03
2022-08-14T13:39:36.686Z,1.80
2022-08-14T13:42:13.173Z,1.25
2022-08-14T13:44:45.467Z,2.00
2022-08-14T13:47:16.044Z,2.03
2022-08-14T13:49:56.848Z,2.13
2022-08-14T13:52:52.214Z,1.95
2022-08-14T13:55:14.039Z,2.45
2022-08-14T13:57:49.777Z,3.25
2022-08-14T14:00:32.464Z,2.22
2022-08-14T14:03:00.759Z,1.88
2022-08-14T14:05:53.405Z,1.80
2022-08-14T14:08:18.797Z,2.55
2022-08-14T14:11:05.592Z,2.28
2022-08-14T14:13:36.806Z,1.58
2022-08-14T14:16:06.180Z,1.58
2022-08-14T14:18:35.506Z,1.98
2022-08-14T14:21:11.052Z,1.83
2022-08-14T14:23:38.848Z,1.70
2022-08-14T14:26:06.785Z,2.25
2022-08-14T14:28:43.458Z,2.33
2022-08-14T14:31:12.684Z,1.60
2022-08-14T14:33:49.280Z,1.67
2022-08-14T14:36:25.645Z,2.47
2022-08-14T14:39:01.768Z,2.13
2022-08-14T14:41:38.099Z,2.05
2022-08-14T14:44:16.807Z,2.05
2022-08-14T14:46:53.191Z,1.33
2022-08-14T14:49:21.694Z,1.98
2022-08-14T14:51:51.380Z,1.40
2022-08-14T14:54:31.464Z,1.70
2022-08-14T14:57:02.191Z,2.00
2022-08-14T14:59:36.183Z,1.35
2022-08-14T15:02:08.113Z,1.38
2022-08-14T15:04:37.870Z,1.40
2022-08-14T15:07:07.371Z,1.30
2022-08-14T15:09:35.405Z,1.77
2022-08-14T15:12:05.572Z,1.25
2022-08-14T15:14:55.356Z,0.95
2022-08-14T15:17:25.134Z,1.45
2022-08-14T15:19:57.306Z,1.38
2022-08-14T15:22:25.452Z,1.15
2022-08-14T15:24:53.073Z,1.02
2022-08-14T15:27:26.144Z,1.42
2022-08-14T15:29:53.928Z,1.48
2022-08-14T15:32:23.308Z,0.98
2022-08-14T15:34:52.707Z,1.45
2022-08-14T15:37:23.293Z,1.00
2022-08-14T15:39:52.742Z,1.20
2022-08-14T15:42:23.654Z,1.50
2022-08-14T15:44:57.793Z,1.33
2022-08-14T15:47:29.928Z,1.67
2022-08-14T15:50:01.728Z,1.60
2022-08-14T15:52:33.149Z,1.20
2022-08-14T15:55:14.795Z,1.13
2022-08-14T15:58:01.647Z,1.25
2022-08-14T16:00:53.400Z,1.50
2022-08-14T16:03:26.978Z,1.00
2022-08-14T16:06:02.452Z,2.08
2022-08-14T16:08:30.723Z,1.15
2022-08-14T16:11:03.158Z,0.85
2022-08-14T16:13:41.647Z,1.00
2022-08-14T16:16:34.592Z,1.33
2022-08-14T16:19:10.509Z,1.63
2022-08-14T16:21:39.805Z,1.77
2022-08-14T16:24:24.983Z,1.58
2022-08-14T16:27:00.275Z,0.80
2022-08-14T16:29:29.857Z,0.90
2022-08-14T16:31:58.730Z,1.13
2022-08-14T16:34:46.007Z,1.23
2022-08-14T16:37:16.646Z,1.30
2022-08-14T16:39:44.738Z,0.70
2022-08-14T16:42:39.269Z,0.90
2022-08-14T16:45:01.082Z,1.00
2022-08-14T16:47:32.149Z,0.90
2022-08-14T16:50:08.438Z,1.23
2022-08-14T16:52:45.065Z,0.90
2022-08-14T16:55:30.016Z,1.20
2022-08-14T16:57:59.104Z,1.10
2022-08-14T17:00:28.994Z,0.73
2022-08-14T17:03:01.916Z,1.05
2022-08-14T17:05:29.405Z,1.25
2022-08-14T17:08:32.450Z,1.20
2022-08-14T17:10:52.630Z,1.48
2022-08-14T17:13:58.298Z,1.70
2022-08-14T17:16:24.692Z,1.00
2022-08-14T17:18:55.469Z,2.25
2022-08-14T17:21:31.752Z,1.40
2022-08-14T17:24:55.948Z,1.17
2022-08-14T17:26:55.167Z,1.40
2022-08-14T17:29:31.179Z,1.27
2022-08-14T17:32:02.460Z,0.98
2022-08-14T17:34:45.509Z,1.17
2022-08-14T17:37:27.177Z,1.00
2022-08-14T17:40:14.948Z,1.40
2022-08-14T17:42:51.060Z,1.50
2022-08-14T17:45:27.037Z,1.58
2022-08-14T17:47:57.510Z,1.50
2022-08-14T17:50:59.568Z,1.55
2022-08-14T17:53:30.449Z,1.10
2022-08-14T17:56:02.481Z,1.30
2022-08-14T17:58:38.756Z,0.98
2022-08-14T18:01:13.685Z,1.20
2022-08-14T18:03:50.676Z,1.05
2022-08-14T18:06:39.354Z,1.05
2022-08-14T18:09:25.451Z,1.23
2022-08-14T18:12:00.254Z,0.70
2022-08-14T18:14:48.462Z,0.70
2022-08-14T18:17:24.160Z,1.25
2022-08-14T18:19:54.645Z,1.05
2022-08-14T18:22:37.007Z,1.10
2022-08-14T18:25:18.102Z,0.88
2022-08-14T18:27:49.340Z,1.08
2022-08-14T18:30:31.800Z,1.02
2022-08-14T18:33:15.677Z,0.95
2022-08-14T18:35:56.864Z,1.10
2022-08-14T18:38:45.763Z,1.25
2022-08-14T18:41:37.378Z,0.85
2022-08-14T18:44:10.204Z,0.70
2022-08-14T18:47:03.406Z,0.75
2022-08-14T18:49:33.549Z,0.80
2022-08-14T18:52:18.968Z,1.35
2022-08-14T18:54:47.587Z,1.23
2022-08-14T18:57:20.218Z,0.90
2022-08-14T18:59:49.805Z,0.98
2022-08-14T19:02:30.643Z,1.13
2022-08-14T19:05:02.725Z,1.25
2022-08-14T19:07:34.178Z,1.60
2022-08-14T19:10:16.626Z,1.10
2022-08-14T19:12:54.265Z,1.00
2022-08-14T19:15:25.804Z,1.23
2022-08-14T19:18:14.549Z,2.05
2022-08-14T19:20:52.539Z,1.50
2022-08-14T19:23:23.260Z,1.95
2022-08-14T19:26:52.196Z,1.70
2022-08-14T19:29:25.080Z,2.28
2022-08-14T19:31:59.135Z,2.80
2022-08-14T19:34:48.158Z,1.92
2022-08-14T19:37:39.634Z,1.65
2022-08-14T19:40:15.345Z,2.70
2022-08-14T19:42:47.844Z,1.40
2022-08-14T19:45:16.654Z,0.93
2022-08-14T19:47:49.829Z,1.02
2022-08-14T19:50:38.613Z,1.30
2022-08-14T19:53:12.037Z,0.90
2022-08-14T19:55:48.256Z,1.10
2022-08-14T19:58:16.246Z,1.00
2022-08-14T20:00:51.668Z,1.88
2022-08-14T20:03:24.046Z,1.05
2022-08-14T20:06:05.585Z,1.75
2022-08-14T20:10:59.378Z,1.98
2022-08-14T20:12:00.771Z,1.45
2022-08-14T20:14:23.010Z,2.92
2022-08-14T20:19:41.593Z,1.23
2022-08-14T20:22:36.995Z,1.90
2022-08-14T20:25:11.602Z,1.38
2022-08-14T20:27:44.193Z,5.00
2022-08-14T20:30:36.427Z,2.03
2022-08-14T20:33:11.000Z,1.10
2022-08-14T20:35:44.279Z,1.65
2022-08-14T20:38:30.243Z,0.93
2022-08-14T20:41:00.889Z,1.83
2022-08-14T20:43:52.731Z,2.55
2022-08-14T20:46:24.227Z,2.45
2022-08-14T20:48:57.682Z,1.80
2022-08-14T20:51:26.581Z,1.73
2022-08-14T20:54:05.608Z,1.48
2022-08-14T20:56:41.237Z,1.73
2022-08-14T20:59:17.484Z,1.60
2022-08-14T21:02:28.518Z,1.95
2022-08-14T21:05:16.392Z,1.33
2022-08-14T21:07:50.200Z,2.00
2022-08-14T21:10:35.826Z,1.92
2022-08-14T21:13:27.936Z,1.35
2022-08-14T21:15:58.118Z,2.40
2022-08-14T21:18:33.818Z,2.10
2022-08-14T21:21:07.960Z,2.13
2022-08-14T21:23:54.758Z,1.98
2022-08-14T21:26:51.443Z,2.60
2022-08-14T21:29:12.593Z,3.25
2022-08-14T21:31:40.851Z,2.58
2022-08-14T21:34:27.490Z,2.72
2022-08-14T21:36:58.924Z,3.13
2022-08-14T21:39:26.481Z,2.53
2022-08-14T21:41:58.724Z,2.63
2022-08-14T21:44:42.854Z,1.90
2022-08-14T21:47:13.233Z,2.25
2022-08-14T21:49:46.367Z,1.95
2022-08-14T21:52:51.313Z,2.30
2022-08-14T21:55:08.890Z,2.63
2022-08-14T21:57:55.774Z,2.03
2022-08-14T22:00:34.810Z,1.98
2022-08-14T22:03:04.294Z,1.75
2022-08-14T22:05:32.037Z,2.63
2022-08-14T22:07:59.785Z,2.30
2022-08-14T22:10:30.489Z,2.17
2022-08-14T22:13:01.381Z,2.42
2022-08-14T22:15:29.797Z,2.33
2022-08-14T22:17:57.870Z,1.77
2022-08-14T22:20:29.054Z,2.53
2022-08-14T22:22:57.144Z,2.20
2022-08-14T22:25:33.330Z,3.22
2022-08-14T22:28:02.378Z,2.38
2022-08-14T22:30:29.964Z,1.73
2022-08-14T22:32:59.929Z,2.78
2022-08-14T22:35:28.519Z,2.65
2022-08-14T22:38:01.798Z,3.25
2022-08-14T22:41:01.286Z,2.60
2022-08-14T22:43:32.539Z,2.05
2022-08-14T22:46:03.443Z,2.13
2022-08-14T22:48:42.105Z,1.60
2022-08-14T22:51:10.675Z,2.50
2022-08-14T22:53:41.216Z,2.13
2022-08-14T22:56:20.216Z,3.10
2022-08-14T22:58:49.954Z,2.03
2022-08-14T23:01:55.614Z,2.80
2022-08-14T23:04:35.080Z,2.95
2022-08-14T23:07:14.371Z,2.15
2022-08-14T23:09:56.294Z,2.38
2022-08-14T23:12:28.246Z,1.92
2022-08-14T23:14:57.085Z,1.90
2022-08-14T23:17:24.699Z,3.00
2022-08-14T23:19:56.235Z,1.88
2022-08-14T23:22:26.010Z,1.40
2022-08-14T23:24:57.846Z,2.80
2022-08-14T23:28:02.449Z,2.45
2022-08-14T23:30:33.909Z,2.05
2022-08-14T23:33:02.507Z,2.28
2022-08-14T23:35:33.174Z,2.10
2022-08-14T23:38:06.782Z,1.83
2022-08-14T23:40:40.798Z,2.25
2022-08-14T23:43:13.280Z,1.75
2022-08-14T23:45:46.673Z,1.85
2022-08-14T23:48:16.222Z,2.83
2022-08-14T23:50:47.808Z,2.50
2022-08-14T23:53:47.209Z,2.83
2022-08-14T23:56:14.468Z,2.05
2022-08-14T23:58:42.196Z,1.67
